sensor_id;sensor_type;location;lat;lon;timestamp;pressure;altitude;pressure_sealevel;temperature;humidity
17383;BME280;8809;51.892;8.384;2023-08-06T00:02:17;99640.81;;;15.54;100.00
17383;BME280;8809;51.892;8.384;2023-08-06T00:04:45;99644.28;;;15.53;100.00
17383;BME280;8809;51.892;8.384;2023-08-06T00:07:12;99646.03;;;15.52;100.00
17383;BME280;8809;51.892;8.384;2023-08-06T00:09:41;99653.03;;;15.52;100.00
17383;BME280;8809;51.892;8.384;2023-08-06T00:12:08;99643.41;;;15.52;100.00
17383;BME280;8809;51.892;8.384;2023-08-06T00:14:35;99641.63;;;15.51;100.00
17383;BME280;8809;51.892;8.384;2023-08-06T00:17:03;99634.59;;;15.49;100.00
17383;BME280;8809;51.892;8.384;2023-08-06T00:19:32;99631.09;;;15.48;100.00
17383;BME280;8809;51.892;8.384;2023-08-06T00:21:59;99633.75;;;15.47;100.00
17383;BME280;8809;51.892;8.384;2023-08-06T00:24:27;99624.97;;;15.48;100.00
17383;BME280;8809;51.892;8.384;2023-08-06T00:26:55;99623.22;;;15.47;100.00
17383;BME280;8809;51.892;8.384;2023-08-06T00:29:23;99620.59;;;15.47;100.00
17383;BME280;8809;51.892;8.384;2023-08-06T00:31:56;99618.84;;;15.47;100.00
17383;BME280;8809;51.892;8.384;2023-08-06T00:34:23;99617.97;;;15.47;100.00
17383;BME280;8809;51.892;8.384;2023-08-06T00:36:52;99618.84;;;15.46;100.00
17383;BME280;8809;51.892;8.384;2023-08-06T00:39:20;99616.22;;;15.46;100.00
17383;BME280;8809;51.892;8.384;2023-08-06T00:41:47;99615.34;;;15.45;100.00
17383;BME280;8809;51.892;8.384;2023-08-06T00:44:16;99607.44;;;15.44;100.00
17383;BME280;8809;51.892;8.384;2023-08-06T00:46:45;99612.69;;;15.44;100.00
17383;BME280;8809;51.892;8.384;2023-08-06T00:49:12;99601.28;;;15.42;100.00
17383;BME280;8809;51.892;8.384;2023-08-06T00:51:40;99610.03;;;15.41;100.00
17383;BME280;8809;51.892;8.384;2023-08-06T00:54:11;99605.63;;;15.40;100.00
17383;BME280;8809;51.892;8.384;2023-08-06T00:56:39;99610.91;;;15.40;100.00
17383;BME280;8809;51.892;8.384;2023-08-06T00:59:12;99610.88;;;15.38;100.00
17383;BME280;8809;51.892;8.384;2023-08-06T01:01:40;99607.41;;;15.38;100.00
17383;BME280;8809;51.892;8.384;2023-08-06T01:04:07;99601.25;;;15.36;100.00
17383;BME280;8809;51.892;8.384;2023-08-06T01:06:39;99596.00;;;15.37;100.00
17383;BME280;8809;51.892;8.384;2023-08-06T01:09:24;99592.50;;;15.37;100.00
17383;BME280;8809;51.892;8.384;2023-08-06T01:12:04;99591.59;;;15.33;100.00
17383;BME280;8809;51.892;8.384;2023-08-06T01:14:44;99588.97;;;15.33;100.00
17383;BME280;8809;51.892;8.384;2023-08-06T01:17:15;99581.94;;;15.31;100.00
17383;BME280;8809;51.892;8.384;2023-08-06T01:19:43;99583.69;;;15.30;100.00
17383;BME280;8809;51.892;8.384;2023-08-06T01:22:14;99582.81;;;15.28;100.00
17383;BME280;8809;51.892;8.384;2023-08-06T01:24:46;99581.03;;;15.26;100.00
17383;BME280;8809;51.892;8.384;2023-08-06T01:27:21;99581.91;;;15.25;100.00
17383;BME280;8809;51.892;8.384;2023-08-06T01:29:57;99581.91;;;15.25;100.00
17383;BME280;8809;51.892;8.384;2023-08-06T01:32:26;99573.13;;;15.22;100.00
17383;BME280;8809;51.892;8.384;2023-08-06T01:34:57;99574.00;;;15.23;100.00
17383;BME280;8809;51.892;8.384;2023-08-06T01:37:30;99571.38;;;15.21;100.00
17383;BME280;8809;51.892;8.384;2023-08-06T01:39:59;99573.13;;;15.21;100.00
17383;BME280;8809;51.892;8.384;2023-08-06T01:42:26;99568.75;;;15.18;100.00
17383;BME280;8809;51.892;8.384;2023-08-06T01:44:53;99562.59;;;15.18;100.00
17383;BME280;8809;51.892;8.384;2023-08-06T01:47:20;99556.47;;;15.17;100.00
17383;BME280;8809;51.892;8.384;2023-08-06T01:49:49;99556.47;;;15.17;100.00
17383;BME280;8809;51.892;8.384;2023-08-06T01:52:17;99556.47;;;15.17;100.00
17383;BME280;8809;51.892;8.384;2023-08-06T01:54:46;99553.84;;;15.16;100.00
17383;BME280;8809;51.892;8.384;2023-08-06T01:57:17;99547.69;;;15.15;100.00
17383;BME280;8809;51.892;8.384;2023-08-06T01:59:45;99552.06;;;15.13;100.00
17383;BME280;8809;51.892;8.384;2023-08-06T02:02:12;99545.03;;;15.12;100.00
17383;BME280;8809;51.892;8.384;2023-08-06T02:04:39;99545.03;;;15.12;100.00
17383;BME280;8809;51.892;8.384;2023-08-06T02:07:10;99538.03;;;15.13;100.00
17383;BME280;8809;51.892;8.384;2023-08-06T02:09:38;99538.03;;;15.11;100.00
17383;BME280;8809;51.892;8.384;2023-08-06T02:12:09;99531.00;;;15.10;100.00
17383;BME280;8809;51.892;8.384;2023-08-06T02:14:36;99525.78;;;15.09;100.00
17383;BME280;8809;51.892;8.384;2023-08-06T02:17:04;99529.25;;;15.06;100.00
17383;BME280;8809;51.892;8.384;2023-08-06T02:19:31;99519.59;;;15.05;100.00
17383;BME280;8809;51.892;8.384;2023-08-06T02:21:59;99518.72;;;15.03;100.00
17383;BME280;8809;51.892;8.384;2023-08-06T02:24:35;99530.09;;;15.02;100.00
17383;BME280;8809;51.892;8.384;2023-08-06T02:27:02;99529.19;;;15.00;100.00
17383;BME280;8809;51.892;8.384;2023-08-06T02:29:31;99527.47;;;14.99;100.00
17383;BME280;8809;51.892;8.384;2023-08-06T02:31:58;99526.56;;;15.00;100.00
17383;BME280;8809;51.892;8.384;2023-08-06T02:34:27;99525.69;;;15.00;100.00
17383;BME280;8809;51.892;8.384;2023-08-06T02:36:57;99525.69;;;15.00;100.00
17383;BME280;8809;51.892;8.384;2023-08-06T02:39:25;99516.97;;;14.99;100.00
17383;BME280;8809;51.892;8.384;2023-08-06T02:41:52;99522.22;;;14.99;100.00
17383;BME280;8809;51.892;8.384;2023-08-06T02:44:19;99510.81;;;14.97;100.00
17383;BME280;8809;51.892;8.384;2023-08-06T02:46:47;99511.66;;;14.96;100.00
17383;BME280;8809;51.892;8.384;2023-08-06T02:49:14;99500.28;;;14.94;100.00
17383;BME280;8809;51.892;8.384;2023-08-06T02:51:47;99501.13;;;14.92;100.00
17383;BME280;8809;51.892;8.384;2023-08-06T02:54:17;99495.88;;;14.89;100.00
17383;BME280;8809;51.892;8.384;2023-08-06T02:56:47;99498.47;;;14.87;100.00
17383;BME280;8809;51.892;8.384;2023-08-06T02:59:14;99493.19;;;14.84;100.00
17383;BME280;8809;51.892;8.384;2023-08-06T03:01:41;99493.19;;;14.82;100.00
17383;BME280;8809;51.892;8.384;2023-08-06T03:04:16;99492.31;;;14.79;100.00
17383;BME280;8809;51.892;8.384;2023-08-06T03:06:44;99487.91;;;14.76;100.00
17383;BME280;8809;51.892;8.384;2023-08-06T03:09:12;99487.88;;;14.75;100.00
17383;BME280;8809;51.892;8.384;2023-08-06T03:11:39;99488.72;;;14.71;100.00
17383;BME280;8809;51.892;8.384;2023-08-06T03:14:06;99480.84;;;14.68;100.00
17383;BME280;8809;51.892;8.384;2023-08-06T03:16:34;99478.19;;;14.65;100.00
17383;BME280;8809;51.892;8.384;2023-08-06T03:19:04;99471.19;;;14.64;100.00
17383;BME280;8809;51.892;8.384;2023-08-06T03:21:33;99468.56;;;14.61;100.00
17383;BME280;8809;51.892;8.384;2023-08-06T03:24:01;99465.03;;;14.59;100.00
17383;BME280;8809;51.892;8.384;2023-08-06T03:26:28;99469.38;;;14.57;100.00
17383;BME280;8809;51.892;8.384;2023-08-06T03:28:55;99471.13;;;14.55;100.00
17383;BME280;8809;51.892;8.384;2023-08-06T03:31:22;99472.84;;;14.53;100.00
17383;BME280;8809;51.892;8.384;2023-08-06T03:33:50;99470.22;;;14.50;100.00
17383;BME280;8809;51.892;8.384;2023-08-06T03:36:17;99472.81;;;14.48;100.00
17383;BME280;8809;51.892;8.384;2023-08-06T03:38:46;99470.13;;;14.42;100.00
17383;BME280;8809;51.892;8.384;2023-08-06T03:41:14;99463.16;;;14.41;100.00
17383;BME280;8809;51.892;8.384;2023-08-06T03:43:41;99461.34;;;14.38;100.00
17383;BME280;8809;51.892;8.384;2023-08-06T03:46:09;99466.59;;;14.38;100.00
17383;BME280;8809;51.892;8.384;2023-08-06T03:48:37;99460.47;;;14.38;100.00
17383;BME280;8809;51.892;8.384;2023-08-06T03:51:04;99454.34;;;14.37;100.00
17383;BME280;8809;51.892;8.384;2023-08-06T03:53:31;99451.69;;;14.36;100.00
17383;BME280;8809;51.892;8.384;2023-08-06T03:55:59;99449.94;;;14.36;100.00
17383;BME280;8809;51.892;8.384;2023-08-06T03:58:27;99446.44;;;14.34;100.00
17383;BME280;8809;51.892;8.384;2023-08-06T04:01:00;99446.41;;;14.33;100.00
17383;BME280;8809;51.892;8.384;2023-08-06T04:03:28;99441.19;;;14.31;100.00
17383;BME280;8809;51.892;8.384;2023-08-06T04:05:56;99441.19;;;14.31;100.00
17383;BME280;8809;51.892;8.384;2023-08-06T04:08:26;99441.16;;;14.30;100.00
17383;BME280;8809;51.892;8.384;2023-08-06T04:10:53;99438.56;;;14.31;100.00
17383;BME280;8809;51.892;8.384;2023-08-06T04:13:21;99439.44;;;14.32;100.00
17383;BME280;8809;51.892;8.384;2023-08-06T04:15:49;99438.53;;;14.33;100.00
17383;BME280;8809;51.892;8.384;2023-08-06T04:18:16;99435.06;;;14.34;100.00
17383;BME280;8809;51.892;8.384;2023-08-06T04:20:45;99438.56;;;14.34;100.00
17383;BME280;8809;51.892;8.384;2023-08-06T04:23:12;99434.19;;;14.35;100.00
17383;BME280;8809;51.892;8.384;2023-08-06T04:25:40;99438.56;;;14.36;100.00
17383;BME280;8809;51.892;8.384;2023-08-06T04:28:08;99442.06;;;14.36;100.00
17383;BME280;8809;51.892;8.384;2023-08-06T04:30:39;99439.47;;;14.36;100.00
17383;BME280;8809;51.892;8.384;2023-08-06T04:33:24;99438.56;;;14.36;100.00
17383;BME280;8809;51.892;8.384;2023-08-06T04:35:54;99442.06;;;14.36;100.00
17383;BME280;8809;51.892;8.384;2023-08-06T04:38:23;99437.69;;;14.35;100.00
17383;BME280;8809;51.892;8.384;2023-08-06T04:40:50;99437.69;;;14.35;100.00
17383;BME280;8809;51.892;8.384;2023-08-06T04:43:17;99438.56;;;14.36;100.00
17383;BME280;8809;51.892;8.384;2023-08-06T04:45:50;99436.84;;;14.36;100.00
17383;BME280;8809;51.892;8.384;2023-08-06T04:48:19;99443.84;;;14.37;100.00
17383;BME280;8809;51.892;8.384;2023-08-06T04:50:46;99444.72;;;14.38;100.00
17383;BME280;8809;51.892;8.384;2023-08-06T04:53:15;99451.72;;;14.37;100.00
17383;BME280;8809;51.892;8.384;2023-08-06T04:55:42;99442.97;;;14.37;100.00
17383;BME280;8809;51.892;8.384;2023-08-06T04:58:10;99444.72;;;14.38;100.00
17383;BME280;8809;51.892;8.384;2023-08-06T05:00:37;99443.84;;;14.37;100.00
17383;BME280;8809;51.892;8.384;2023-08-06T05:03:06;99448.22;;;14.37;100.00
17383;BME280;8809;51.892;8.384;2023-08-06T05:05:34;99444.69;;;14.36;100.00
17383;BME280;8809;51.892;8.384;2023-08-06T05:08:01;99448.22;;;14.37;100.00
17383;BME280;8809;51.892;8.384;2023-08-06T05:10:29;99448.22;;;14.38;100.00
17383;BME280;8809;51.892;8.384;2023-08-06T05:12:56;99443.84;;;14.37;100.00
17383;BME280;8809;51.892;8.384;2023-08-06T05:15:23;99448.28;;;14.40;100.00
17383;BME280;8809;51.892;8.384;2023-08-06T05:17:51;99449.97;;;14.38;100.00
17383;BME280;8809;51.892;8.384;2023-08-06T05:20:20;99449.19;;;14.46;100.00
17383;BME280;8809;51.892;8.384;2023-08-06T05:22:47;99451.75;;;14.42;100.00
17383;BME280;8809;51.892;8.384;2023-08-06T05:25:16;99454.41;;;14.43;100.00
17383;BME280;8809;51.892;8.384;2023-08-06T05:27:44;99453.53;;;14.41;100.00
17383;BME280;8809;51.892;8.384;2023-08-06T05:30:11;99457.03;;;14.43;100.00
17383;BME280;8809;51.892;8.384;2023-08-06T05:32:40;99457.91;;;14.44;100.00
17383;BME280;8809;51.892;8.384;2023-08-06T05:35:08;99457.03;;;14.45;100.00
17383;BME280;8809;51.892;8.384;2023-08-06T05:37:36;99457.94;;;14.47;100.00
17383;BME280;8809;51.892;8.384;2023-08-06T05:40:04;99459.72;;;14.50;100.00
17383;BME280;8809;51.892;8.384;2023-08-06T05:42:31;99459.75;;;14.51;100.00
17383;BME280;8809;51.892;8.384;2023-08-06T05:44:58;99460.59;;;14.53;100.00
17383;BME280;8809;51.892;8.384;2023-08-06T05:47:25;99458.88;;;14.55;100.00
17383;BME280;8809;51.892;8.384;2023-08-06T05:49:52;99458.03;;;14.58;100.00
17383;BME280;8809;51.892;8.384;2023-08-06T05:52:23;99458.06;;;14.61;100.00
17383;BME280;8809;51.892;8.384;2023-08-06T05:54:54;99462.44;;;14.63;100.00
17383;BME280;8809;51.892;8.384;2023-08-06T05:57:21;99463.31;;;14.64;100.00
17383;BME280;8809;51.892;8.384;2023-08-06T05:59:50;99467.72;;;14.66;100.00
17383;BME280;8809;51.892;8.384;2023-08-06T06:02:17;99460.72;;;14.67;100.00
17383;BME280;8809;51.892;8.384;2023-08-06T06:04:45;99458.97;;;14.67;100.00
17383;BME280;8809;51.892;8.384;2023-08-06T06:07:14;99461.59;;;14.67;100.00
17383;BME280;8809;51.892;8.384;2023-08-06T06:09:41;99461.59;;;14.67;100.00
17383;BME280;8809;51.892;8.384;2023-08-06T06:12:10;99460.72;;;14.68;100.00
17383;BME280;8809;51.892;8.384;2023-08-06T06:14:37;99457.22;;;14.68;100.00
17383;BME280;8809;51.892;8.384;2023-08-06T06:17:07;99455.50;;;14.70;100.00
17383;BME280;8809;51.892;8.384;2023-08-06T06:19:35;99463.34;;;14.71;100.00
17383;BME280;8809;51.892;8.384;2023-08-06T06:22:03;99463.38;;;14.73;100.00
17383;BME280;8809;51.892;8.384;2023-08-06T06:24:31;99457.25;;;14.75;100.00
17383;BME280;8809;51.892;8.384;2023-08-06T06:26:58;99460.78;;;14.77;100.00
17383;BME280;8809;51.892;8.384;2023-08-06T06:29:29;99460.78;;;14.80;100.00
17383;BME280;8809;51.892;8.384;2023-08-06T06:31:56;99460.78;;;14.82;100.00
17383;BME280;8809;51.892;8.384;2023-08-06T06:34:24;99453.81;;;14.84;100.00
17383;BME280;8809;51.892;8.384;2023-08-06T06:36:51;99460.84;;;14.88;100.00
17383;BME280;8809;51.892;8.384;2023-08-06T06:39:18;99460.91;;;14.96;100.00
17383;BME280;8809;51.892;8.384;2023-08-06T06:41:45;99452.16;;;15.03;100.00
17383;BME280;8809;51.892;8.384;2023-08-06T06:44:13;99454.84;;;15.12;100.00
17383;BME280;8809;51.892;8.384;2023-08-06T06:46:41;99452.25;;;15.18;100.00
17383;BME280;8809;51.892;8.384;2023-08-06T06:49:08;99453.16;;;15.25;100.00
17383;BME280;8809;51.892;8.384;2023-08-06T06:51:36;99450.53;;;15.31;100.00
17383;BME280;8809;51.892;8.384;2023-08-06T06:54:03;99451.44;;;15.39;100.00
17383;BME280;8809;51.892;8.384;2023-08-06T06:56:34;99449.75;;;15.47;100.00
17383;BME280;8809;51.892;8.384;2023-08-06T06:59:02;99444.50;;;15.51;100.00
17383;BME280;8809;51.892;8.384;2023-08-06T07:01:29;99443.66;;;15.54;100.00
17383;BME280;8809;51.892;8.384;2023-08-06T07:04:00;99446.31;;;15.60;100.00
17383;BME280;8809;51.892;8.384;2023-08-06T07:06:30;99440.19;;;15.64;100.00
17383;BME280;8809;51.892;8.384;2023-08-06T07:08:58;99434.06;;;15.71;100.00
17383;BME280;8809;51.892;8.384;2023-08-06T07:11:29;99439.31;;;15.77;100.00
17383;BME280;8809;51.892;8.384;2023-08-06T07:13:57;99444.63;;;15.83;100.00
17383;BME280;8809;51.892;8.384;2023-08-06T07:16:26;99432.34;;;15.88;100.00
17383;BME280;8809;51.892;8.384;2023-08-06T07:18:58;99439.38;;;15.92;100.00
17383;BME280;8809;51.892;8.384;2023-08-06T07:21:27;99442.00;;;16.03;100.00
17383;BME280;8809;51.892;8.384;2023-08-06T07:23:57;99449.03;;;16.16;100.00
17383;BME280;8809;51.892;8.384;2023-08-06T07:26:25;99439.41;;;16.23;100.00
17383;BME280;8809;51.892;8.384;2023-08-06T07:28:52;99436.75;;;16.29;100.00
17383;BME280;8809;51.892;8.384;2023-08-06T07:31:19;99434.97;;;16.34;100.00
17383;BME280;8809;51.892;8.384;2023-08-06T07:33:48;99441.13;;;16.39;100.00
17383;BME280;8809;51.892;8.384;2023-08-06T07:36:15;99441.13;;;16.45;100.00
17383;BME280;8809;51.892;8.384;2023-08-06T07:38:45;99444.66;;;16.49;100.00
17383;BME280;8809;51.892;8.384;2023-08-06T07:41:17;99444.63;;;16.55;100.00
17383;BME280;8809;51.892;8.384;2023-08-06T07:43:44;99444.66;;;16.61;100.00
17383;BME280;8809;51.892;8.384;2023-08-06T07:46:12;99444.66;;;16.65;100.00
17383;BME280;8809;51.892;8.384;2023-08-06T07:48:39;99449.03;;;16.68;100.00
17383;BME280;8809;51.892;8.384;2023-08-06T07:51:06;99442.00;;;16.75;100.00
17383;BME280;8809;51.892;8.384;2023-08-06T07:53:34;99444.66;;;16.81;100.00
17383;BME280;8809;51.892;8.384;2023-08-06T07:56:05;99452.53;;;16.85;100.00
17383;BME280;8809;51.892;8.384;2023-08-06T07:58:37;99446.34;;;16.92;100.00
17383;BME280;8809;51.892;8.384;2023-08-06T08:01:06;99441.97;;;16.99;100.00
17383;BME280;8809;51.892;8.384;2023-08-06T08:03:33;99443.69;;;17.09;100.00
17383;BME280;8809;51.892;8.384;2023-08-06T08:06:00;99441.03;;;17.15;100.00
17383;BME280;8809;51.892;8.384;2023-08-06T08:08:27;99439.22;;;17.26;100.00
17383;BME280;8809;51.892;8.384;2023-08-06T08:10:55;99437.44;;;17.33;100.00
17383;BME280;8809;51.892;8.384;2023-08-06T08:13:27;99441.81;;;17.35;100.00
17383;BME280;8809;51.892;8.384;2023-08-06T08:15:58;99440.06;;;17.37;100.00
17383;BME280;8809;51.892;8.384;2023-08-06T08:18:27;99442.66;;;17.40;100.00
17383;BME280;8809;51.892;8.384;2023-08-06T08:20:57;99449.69;;;17.41;100.00
17383;BME280;8809;51.892;8.384;2023-08-06T08:23:24;99451.44;;;17.47;100.00
17383;BME280;8809;51.892;8.384;2023-08-06T08:25:55;99450.53;;;17.50;100.00
17383;BME280;8809;51.892;8.384;2023-08-06T08:28:22;99455.78;;;17.57;100.00
17383;BME280;8809;51.892;8.384;2023-08-06T08:30:50;99452.28;;;17.58;100.00
17383;BME280;8809;51.892;8.384;2023-08-06T08:33:17;99453.13;;;17.66;100.00
17383;BME280;8809;51.892;8.384;2023-08-06T08:35:46;99453.09;;;17.72;100.00
17383;BME280;8809;51.892;8.384;2023-08-06T08:38:15;99449.53;;;17.81;100.00
17383;BME280;8809;51.892;8.384;2023-08-06T08:40:51;99445.06;;;17.91;100.00
17383;BME280;8809;51.892;8.384;2023-08-06T08:43:28;99450.22;;;18.07;100.00
17383;BME280;8809;51.892;8.384;2023-08-06T08:45:58;99456.34;;;18.14;100.00
17383;BME280;8809;51.892;8.384;2023-08-06T08:48:27;99448.34;;;18.23;100.00
17383;BME280;8809;51.892;8.384;2023-08-06T08:50:56;99443.00;;;18.31;100.00
17383;BME280;8809;51.892;8.384;2023-08-06T08:53:35;99441.97;;;18.47;100.00
17383;BME280;8809;51.892;8.384;2023-08-06T08:56:05;99448.06;;;18.61;100.00
17383;BME280;8809;51.892;8.384;2023-08-06T08:58:35;99446.13;;;18.77;100.00
17383;BME280;8809;51.892;8.384;2023-08-06T09:01:06;99446.97;;;18.83;100.00
17383;BME280;8809;51.892;8.384;2023-08-06T09:03:39;99441.59;;;18.91;100.00
17383;BME280;8809;51.892;8.384;2023-08-06T09:06:12;99448.59;;;18.94;100.00
17383;BME280;8809;51.892;8.384;2023-08-06T09:08:50;99457.44;;;18.93;100.00
17383;BME280;8809;51.892;8.384;2023-08-06T09:11:20;99448.66;;;18.90;100.00
17383;BME280;8809;51.892;8.384;2023-08-06T09:13:50;99453.06;;;18.90;100.00
17383;BME280;8809;51.892;8.384;2023-08-06T09:16:21;99452.09;;;18.96;100.00
17383;BME280;8809;51.892;8.384;2023-08-06T09:18:49;99454.66;;;19.05;100.00
17383;BME280;8809;51.892;8.384;2023-08-06T09:21:16;99454.59;;;19.12;100.00
17383;BME280;8809;51.892;8.384;2023-08-06T09:23:43;99451.88;;;19.17;100.00
17383;BME280;8809;51.892;8.384;2023-08-06T09:26:14;99458.03;;;19.19;100.00
17383;BME280;8809;51.892;8.384;2023-08-06T09:28:44;99450.88;;;19.28;100.00
17383;BME280;8809;51.892;8.384;2023-08-06T09:31:14;99461.38;;;19.33;100.00
17383;BME280;8809;51.892;8.384;2023-08-06T09:33:43;99458.72;;;19.33;100.00
17383;BME280;8809;51.892;8.384;2023-08-06T09:36:15;99448.22;;;19.30;100.00
17383;BME280;8809;51.892;8.384;2023-08-06T09:38:49;99454.38;;;19.29;100.00
17383;BME280;8809;51.892;8.384;2023-08-06T09:41:26;99453.53;;;19.27;100.00
17383;BME280;8809;51.892;8.384;2023-08-06T09:43:54;99452.66;;;19.25;100.00
17383;BME280;8809;51.892;8.384;2023-08-06T09:46:21;99452.72;;;19.20;100.00
17383;BME280;8809;51.892;8.384;2023-08-06T09:48:52;99450.09;;;19.19;100.00
17383;BME280;8809;51.892;8.384;2023-08-06T09:51:19;99444.78;;;19.22;100.00
17383;BME280;8809;51.892;8.384;2023-08-06T09:53:48;99449.97;;;19.31;100.00
17383;BME280;8809;51.892;8.384;2023-08-06T09:56:20;99443.41;;;19.62;100.00
17383;BME280;8809;51.892;8.384;2023-08-06T09:58:48;99447.25;;;20.00;100.00
17383;BME280;8809;51.892;8.384;2023-08-06T10:01:16;99445.41;;;20.08;100.00
17383;BME280;8809;51.892;8.384;2023-08-06T10:03:47;99446.34;;;20.04;100.00
17383;BME280;8809;51.892;8.384;2023-08-06T10:06:18;99455.28;;;19.97;100.00
17383;BME280;8809;51.892;8.384;2023-08-06T10:08:53;99440.41;;;19.87;100.00
17383;BME280;8809;51.892;8.384;2023-08-06T10:11:26;99446.63;;;19.83;100.00
17383;BME280;8809;51.892;8.384;2023-08-06T10:14:04;99445.84;;;19.78;100.00
17383;BME280;8809;51.892;8.384;2023-08-06T10:16:34;99437.03;;;19.76;100.00
17383;BME280;8809;51.892;8.384;2023-08-06T10:19:04;99447.66;;;19.73;100.00
17383;BME280;8809;51.892;8.384;2023-08-06T10:21:34;99452.09;;;19.72;100.00
17383;BME280;8809;51.892;8.384;2023-08-06T10:24:02;99445.97;;;19.69;100.00
17383;BME280;8809;51.892;8.384;2023-08-06T10:26:29;99443.31;;;19.69;100.00
17383;BME280;8809;51.892;8.384;2023-08-06T10:28:57;99444.22;;;19.68;100.00
17383;BME280;8809;51.892;8.384;2023-08-06T10:31:58;99439.81;;;19.68;100.00
17383;BME280;8809;51.892;8.384;2023-08-06T10:34:53;99433.69;;;19.61;100.00
17383;BME280;8809;51.892;8.384;2023-08-06T10:37:23;99430.22;;;19.59;100.00
17383;BME280;8809;51.892;8.384;2023-08-06T10:39:50;99436.31;;;19.64;100.00
17383;BME280;8809;51.892;8.384;2023-08-06T10:42:22;99429.00;;;19.82;100.00
17383;BME280;8809;51.892;8.384;2023-08-06T10:45:20;99433.22;;;19.95;100.00
17383;BME280;8809;51.892;8.384;2023-08-06T10:47:50;99435.88;;;19.96;100.00
17383;BME280;8809;51.892;8.384;2023-08-06T10:50:20;99434.06;;;19.98;100.00
17383;BME280;8809;51.892;8.384;2023-08-06T10:52:51;99434.94;;;19.99;100.00
17383;BME280;8809;51.892;8.384;2023-08-06T10:55:26;99430.59;;;19.95;100.00
17383;BME280;8809;51.892;8.384;2023-08-06T10:58:15;99434.13;;;19.95;100.00
17383;BME280;8809;51.892;8.384;2023-08-06T11:00:45;99435.91;;;19.92;100.00
17383;BME280;8809;51.892;8.384;2023-08-06T11:03:15;99437.75;;;19.88;100.00
17383;BME280;8809;51.892;8.384;2023-08-06T11:05:48;99439.56;;;19.85;100.00
17383;BME280;8809;51.892;8.384;2023-08-06T11:08:32;99436.19;;;19.74;100.00
17383;BME280;8809;51.892;8.384;2023-08-06T11:11:07;99430.09;;;19.70;100.00
17383;BME280;8809;51.892;8.384;2023-08-06T11:13:37;99423.97;;;19.65;100.00
17383;BME280;8809;51.892;8.384;2023-08-06T11:16:06;99427.59;;;19.59;100.00
17383;BME280;8809;51.892;8.384;2023-08-06T11:18:36;99418.81;;;19.53;100.00
17383;BME280;8809;51.892;8.384;2023-08-06T11:21:03;99421.56;;;19.48;100.00
17383;BME280;8809;51.892;8.384;2023-08-06T11:23:33;99421.59;;;19.42;100.00
17383;BME280;8809;51.892;8.384;2023-08-06T11:26:02;99411.97;;;19.37;100.00
17383;BME280;8809;51.892;8.384;2023-08-06T11:28:32;99422.56;;;19.35;100.00
17383;BME280;8809;51.892;8.384;2023-08-06T11:30:59;99419.03;;;19.35;100.00
17383;BME280;8809;51.892;8.384;2023-08-06T11:33:29;99414.72;;;19.31;100.00
17383;BME280;8809;51.892;8.384;2023-08-06T11:35:59;99415.59;;;19.28;100.00
17383;BME280;8809;51.892;8.384;2023-08-06T11:38:28;99418.22;;;19.31;100.00
17383;BME280;8809;51.892;8.384;2023-08-06T11:41:03;99429.72;;;19.28;100.00
17383;BME280;8809;51.892;8.384;2023-08-06T11:43:31;99430.59;;;19.27;100.00
17383;BME280;8809;51.892;8.384;2023-08-06T11:45:59;99432.34;;;19.30;100.00
17383;BME280;8809;51.892;8.384;2023-08-06T11:48:29;99425.28;;;19.29;100.00
17383;BME280;8809;51.892;8.384;2023-08-06T11:50:56;99424.41;;;19.28;100.00
17383;BME280;8809;51.892;8.384;2023-08-06T11:53:27;99419.16;;;19.27;100.00
17383;BME280;8809;51.892;8.384;2023-08-06T11:55:55;99421.81;;;19.24;100.00
17383;BME280;8809;51.892;8.384;2023-08-06T11:58:25;99413.00;;;19.25;100.00
17383;BME280;8809;51.892;8.384;2023-08-06T12:00:54;99416.59;;;19.19;100.00
17383;BME280;8809;51.892;8.384;2023-08-06T12:03:23;99406.94;;;19.17;100.00
17383;BME280;8809;51.892;8.384;2023-08-06T12:05:54;99402.63;;;19.10;100.00
17383;BME280;8809;51.892;8.384;2023-08-06T12:08:26;99404.41;;;19.08;100.00
17383;BME280;8809;51.892;8.384;2023-08-06T12:10:54;99403.53;;;19.07;100.00
17383;BME280;8809;51.892;8.384;2023-08-06T12:13:22;99402.59;;;19.11;100.00
17383;BME280;8809;51.892;8.384;2023-08-06T12:15:53;99399.91;;;19.14;100.00
17383;BME280;8809;51.892;8.384;2023-08-06T12:18:23;99402.56;;;19.13;100.00
17383;BME280;8809;51.892;8.384;2023-08-06T12:20:51;99404.31;;;19.15;100.00
17383;BME280;8809;51.892;8.384;2023-08-06T12:23:18;99400.75;;;19.18;100.00
17383;BME280;8809;51.892;8.384;2023-08-06T12:25:45;99409.47;;;19.23;100.00
17383;BME280;8809;51.892;8.384;2023-08-06T12:28:12;99405.06;;;19.25;100.00
17383;BME280;8809;51.892;8.384;2023-08-06T12:30:40;99400.69;;;19.22;100.00
17383;BME280;8809;51.892;8.384;2023-08-06T12:33:10;99406.84;;;19.23;100.00
17383;BME280;8809;51.892;8.384;2023-08-06T12:35:39;99398.91;;;19.23;100.00
17383;BME280;8809;51.892;8.384;2023-08-06T12:38:07;99403.28;;;19.25;100.00
17383;BME280;8809;51.892;8.384;2023-08-06T12:40:35;99397.09;;;19.28;100.00
17383;BME280;8809;51.892;8.384;2023-08-06T12:43:03;99400.66;;;19.24;100.00
17383;BME280;8809;51.892;8.384;2023-08-06T12:45:38;99402.44;;;19.23;100.00
17383;BME280;8809;51.892;8.384;2023-08-06T12:48:09;99406.03;;;19.19;100.00
17383;BME280;8809;51.892;8.384;2023-08-06T12:50:37;99410.56;;;19.10;100.00
17383;BME280;8809;51.892;8.384;2023-08-06T12:53:04;99411.53;;;19.00;100.00
17383;BME280;8809;51.892;8.384;2023-08-06T12:55:32;99412.53;;;18.93;100.00
17383;BME280;8809;51.892;8.384;2023-08-06T12:57:59;99409.94;;;18.86;100.00
17383;BME280;8809;51.892;8.384;2023-08-06T13:00:28;99410.88;;;18.79;100.00
17383;BME280;8809;51.892;8.384;2023-08-06T13:02:57;99416.22;;;18.75;100.00
17383;BME280;8809;51.892;8.384;2023-08-06T13:05:26;99418.91;;;18.70;100.00
17383;BME280;8809;51.892;8.384;2023-08-06T13:07:53;99432.13;;;18.69;100.00
17383;BME280;8809;51.892;8.384;2023-08-06T13:10:21;99447.09;;;18.68;100.00
17383;BME280;8809;51.892;8.384;2023-08-06T13:12:50;99436.63;;;18.62;100.00